Time;durP1;ratioP1;P1;durP2;ratioP2;P2;SDS_P1;SDS_P2;PMS_P1;PMS_P2;Temp;Humidity;BMP_temperature;BMP_pressure;BME280_temperature;BME280_humidity;BME280_pressure;Samples;Min_cycle;Max_cycle;Signal;HPM_P1;HPM_P2
2022/06/26 00:00:05;;;;;;;7.00;2.93;;;;;;;19.74;57.98;100052.74;1409973;92;21870;-90
2022/06/26 00:02:32;;;;;;;11.93;3.57;;;;;;;19.76;57.84;100055.20;1411270;92;21391;-89
2022/06/26 00:04:58;;;;;;;6.60;3.10;;;;;;;19.74;57.54;100050.06;1416534;92;21355;-90
2022/06/26 00:07:25;;;;;;;14.50;2.77;;;;;;;19.73;57.74;100066.37;1378682;92;22346;-90
2022/06/26 00:09:51;;;;;;;6.30;2.93;;;;;;;19.73;57.60;100061.81;1415596;92;21393;-90
2022/06/26 00:12:17;;;;;;;7.93;2.97;;;;;;;19.72;57.67;100068.23;1392354;92;22376;-90
2022/06/26 00:14:43;;;;;;;9.37;2.80;;;;;;;19.68;57.67;100058.98;1414303;92;21474;-90
2022/06/26 00:17:10;;;;;;;9.77;4.57;;;;;;;19.61;58.11;100056.28;1415899;92;23512;-90
2022/06/26 00:19:36;;;;;;;7.47;3.30;;;;;;;19.59;58.29;100062.91;1411855;92;21392;-89
2022/06/26 00:22:05;;;;;;;8.83;3.50;;;;;;;19.56;58.53;100059.31;1412155;92;22458;-90
2022/06/26 00:24:30;;;;;;;10.87;3.27;;;;;;;19.51;58.10;100057.30;1417739;92;22578;-90
2022/06/26 00:26:57;;;;;;;5.60;3.63;;;;;;;19.50;58.72;100062.34;1414182;92;22832;-90
2022/06/26 00:29:23;;;;;;;6.50;3.07;;;;;;;19.46;58.62;100063.00;1410778;92;21497;-90
2022/06/26 00:31:49;;;;;;;7.57;3.37;;;;;;;19.42;59.23;100063.10;1384701;92;21946;-90
2022/06/26 00:34:15;;;;;;;4.87;2.60;;;;;;;19.37;58.92;100072.63;1387736;92;22416;-90
2022/06/26 00:36:41;;;;;;;7.47;2.83;;;;;;;19.36;58.74;100077.70;1394172;92;21348;-90
2022/06/26 00:39:07;;;;;;;11.20;2.87;;;;;;;19.37;58.88;100068.61;1421548;92;21377;-90
2022/06/26 00:41:35;;;;;;;6.23;2.63;;;;;;;19.38;58.99;100068.90;1391334;92;22333;-90
2022/06/26 00:44:03;;;;;;;6.73;3.13;;;;;;;19.37;59.18;100077.18;1413223;92;21385;-90
2022/06/26 00:46:29;;;;;;;6.40;3.03;;;;;;;19.36;58.81;100073.68;1408965;92;21445;-90
2022/06/26 00:48:55;;;;;;;6.63;2.40;;;;;;;19.37;58.70;100079.86;1388268;92;21399;-90
2022/06/26 00:51:22;;;;;;;7.97;3.17;;;;;;;19.38;58.82;100075.61;1399858;92;21510;-90
2022/06/26 00:53:48;;;;;;;5.50;2.90;;;;;;;19.37;59.19;100082.02;1418918;92;21444;-91
2022/06/26 00:56:14;;;;;;;6.60;2.33;;;;;;;19.35;59.25;100079.24;1414482;92;21408;-91
2022/06/26 00:58:40;;;;;;;7.17;2.60;;;;;;;19.36;59.39;100080.87;1416969;92;21563;-90
2022/06/26 01:01:07;;;;;;;5.13;2.53;;;;;;;19.40;59.40;100084.80;1410674;92;21438;-90
2022/06/26 01:03:33;;;;;;;6.70;3.30;;;;;;;19.46;59.03;100077.23;1398590;92;21407;-90
2022/06/26 01:05:59;;;;;;;4.30;2.80;;;;;;;19.49;58.69;100079.48;1408640;92;21415;-90
2022/06/26 01:08:26;;;;;;;6.43;2.53;;;;;;;19.55;58.35;100084.52;1407120;92;21326;-90
2022/06/26 01:10:52;;;;;;;8.70;3.00;;;;;;;19.58;58.26;100081.40;1411779;92;21377;-89
2022/06/26 01:13:18;;;;;;;13.70;3.90;;;;;;;19.59;58.05;100080.35;1411448;92;21452;-90
2022/06/26 01:15:45;;;;;;;5.47;2.57;;;;;;;19.58;57.84;100077.37;1411960;92;21556;-90
2022/06/26 01:18:11;;;;;;;9.47;2.57;;;;;;;19.58;57.82;100082.74;1410666;92;22531;-90
2022/06/26 01:20:39;;;;;;;6.20;2.60;;;;;;;19.57;57.82;100086.48;1413169;92;21511;-90
2022/06/26 01:23:08;;;;;;;6.57;2.57;;;;;;;19.53;58.35;100086.58;1415704;92;22996;-89
2022/06/26 01:25:47;;;;;;;9.83;2.83;;;;;;;19.52;58.36;100088.97;1411425;92;21643;-90
2022/06/26 01:28:15;;;;;;;6.73;3.40;;;;;;;19.49;58.54;100087.53;1416204;92;21392;-90
2022/06/26 01:30:41;;;;;;;7.30;2.77;;;;;;;19.48;58.21;100083.71;1415437;92;22303;-91
2022/06/26 01:33:08;;;;;;;5.30;2.53;;;;;;;19.46;58.07;100085.81;1414422;92;21414;-90
2022/06/26 01:35:35;;;;;;;11.63;3.37;;;;;;;19.44;58.40;100091.90;1425603;91;22390;-90
2022/06/26 01:38:21;;;;;;;10.10;3.10;;;;;;;19.41;58.50;100086.96;1392276;92;21541;-90
2022/06/26 01:40:53;;;;;;;5.47;2.70;;;;;;;19.38;58.39;100083.66;1414436;92;21617;-90
2022/06/26 01:43:29;;;;;;;3.40;2.30;;;;;;;19.30;58.93;100094.63;1411817;92;21532;-90
2022/06/26 01:45:57;;;;;;;9.20;2.93;;;;;;;19.25;58.99;100097.15;1410410;92;21474;-90
2022/06/26 01:48:24;;;;;;;5.90;2.60;;;;;;;19.22;58.89;100100.75;1414185;92;21377;-90
2022/06/26 01:50:52;;;;;;;7.47;2.73;;;;;;;19.15;59.37;100099.44;1410324;92;21621;-91
2022/06/26 01:53:18;;;;;;;5.83;2.53;;;;;;;19.11;60.31;100100.91;1411469;92;21429;-90
2022/06/26 01:55:45;;;;;;;6.90;2.50;;;;;;;19.07;60.29;100105.03;1417189;92;22287;-90
2022/06/26 01:58:11;;;;;;;9.23;3.10;;;;;;;19.02;61.25;100106.18;1418261;92;21547;-90
2022/06/26 02:00:41;;;;;;;8.03;3.07;;;;;;;19.00;61.07;100109.61;1412595;92;21511;-90
2022/06/26 02:03:08;;;;;;;;;;;;;;;18.98;60.80;100107.64;1416814;92;21364;-90
2022/06/26 02:05:35;;;;;;;5.13;2.70;;;;;;;18.92;60.14;100103.95;1416537;91;20294;-90
2022/06/26 02:08:02;;;;;;;9.23;2.93;;;;;;;18.82;60.83;100111.09;1380992;92;21371;-90
2022/06/26 02:16:00;;;;;;;7.03;2.70;;;;;;;18.66;61.12;100124.37;1415768;92;22465;-90
2022/06/26 02:18:28;;;;;;;15.77;2.90;;;;;;;18.57;61.03;100122.94;1399721;92;21414;-90
2022/06/26 02:20:55;;;;;;;4.10;2.80;;;;;;;18.48;61.42;100123.67;1401299;92;21475;-90
2022/06/26 02:23:21;;;;;;;7.80;2.43;;;;;;;18.44;61.40;100138.52;1396102;92;21341;-90
2022/06/26 02:25:48;;;;;;;8.97;3.00;;;;;;;18.41;61.67;100138.94;1414454;92;21400;-90
2022/06/26 02:28:16;;;;;;;5.40;2.60;;;;;;;18.39;62.22;100136.97;1413400;92;22427;-90
2022/06/26 02:30:43;;;;;;;5.33;2.90;;;;;;;18.32;63.32;100124.06;1415559;92;21488;-90
2022/06/26 02:33:09;;;;;;;7.80;2.80;;;;;;;18.25;63.55;100125.41;1416867;92;21385;-90
2022/06/26 02:35:35;;;;;;;12.13;2.83;;;;;;;18.24;63.17;100118.91;1413736;92;21518;-90
2022/06/26 02:38:02;;;;;;;9.53;2.73;;;;;;;18.25;63.05;100129.44;1412838;92;22526;-90
2022/06/26 02:40:30;;;;;;;10.30;2.90;;;;;;;18.27;62.80;100130.58;1397425;92;21385;-90
2022/06/26 02:42:57;;;;;;;12.77;2.77;;;;;;;18.22;63.08;100130.36;1412857;92;21420;-90
2022/06/26 02:45:23;;;;;;;5.53;2.47;;;;;;;18.16;63.25;100132.00;1409046;92;21400;-90
2022/06/26 02:47:50;;;;;;;15.03;3.10;;;;;;;18.14;63.33;100147.96;1410417;92;22052;-90
2022/06/26 02:50:16;;;;;;;18.73;3.57;;;;;;;18.12;63.12;100152.17;1416095;92;21320;-90
2022/06/26 02:52:44;;;;;;;10.77;3.00;;;;;;;18.03;63.76;100138.67;1408119;92;22308;-91
2022/06/26 02:55:11;;;;;;;8.63;3.10;;;;;;;17.99;63.23;100146.29;1414510;92;21567;-90
2022/06/26 02:57:37;;;;;;;13.30;4.53;;;;;;;17.99;63.83;100144.13;1418767;92;21290;-90
2022/06/26 03:00:05;;;;;;;7.17;2.93;;;;;;;17.95;64.91;100139.70;1407420;92;21365;-89
2022/06/26 03:02:32;;;;;;;9.67;2.73;;;;;;;17.99;64.66;100154.84;1410437;92;22340;-90
2022/06/26 03:04:58;;;;;;;8.70;2.70;;;;;;;18.00;65.30;100151.95;1417525;92;21437;-90
2022/06/26 03:07:24;;;;;;;6.83;2.80;;;;;;;17.93;65.14;100144.42;1418257;92;21548;-90
2022/06/26 03:09:50;;;;;;;5.73;2.93;;;;;;;17.91;64.90;100146.98;1410491;92;22382;-90
2022/06/26 03:12:16;;;;;;;10.63;3.83;;;;;;;17.91;64.72;100153.16;1419748;92;21393;-90
2022/06/26 03:14:42;;;;;;;11.80;2.77;;;;;;;17.91;64.41;100151.83;1413484;92;21407;-91
2022/06/26 03:17:09;;;;;;;9.00;3.07;;;;;;;17.85;65.29;100155.31;1414993;92;22530;-90
2022/06/26 03:19:35;;;;;;;6.30;2.80;;;;;;;17.83;64.92;100148.51;1412785;92;21348;-90
2022/06/26 03:22:01;;;;;;;4.47;2.50;;;;;;;17.82;65.01;100150.36;1413686;92;21421;-90
2022/06/26 03:24:27;;;;;;;5.50;2.90;;;;;;;17.78;65.86;100150.44;1404204;92;22472;-90
2022/06/26 03:26:53;;;;;;;5.27;2.57;;;;;;;17.77;66.01;100151.45;1415568;92;21349;-90
2022/06/26 03:29:20;;;;;;;6.53;3.33;;;;;;;17.78;66.20;100151.78;1418465;92;22346;-90
2022/06/26 03:31:46;;;;;;;4.93;3.13;;;;;;;17.80;66.16;100155.91;1409691;92;21305;-90
2022/06/26 03:34:12;;;;;;;8.03;3.50;;;;;;;17.85;66.24;100153.16;1389460;94;21313;-90
2022/06/26 03:36:38;;;;;;;7.23;2.77;;;;;;;17.86;66.46;100154.27;1391186;94;21387;-91
2022/06/26 03:39:05;;;;;;;8.20;3.30;;;;;;;17.83;66.91;100161.38;1392359;94;21379;-90
2022/06/26 03:41:31;;;;;;;9.17;3.00;;;;;;;17.81;67.00;100164.79;1389464;94;21492;-90
2022/06/26 03:43:57;;;;;;;6.03;2.70;;;;;;;17.83;66.91;100165.39;1380546;94;21476;-91
2022/06/26 03:46:23;;;;;;;8.10;3.63;;;;;;;17.81;67.82;100162.93;1408120;92;21644;-90
2022/06/26 03:48:50;;;;;;;3.33;2.33;;;;;;;17.85;67.92;100170.04;1418836;92;21399;-90
2022/06/26 03:51:16;;;;;;;10.90;3.93;;;;;;;17.90;68.43;100169.45;1398077;92;21410;-89
2022/06/26 03:53:42;;;;;;;7.70;3.03;;;;;;;17.90;68.27;100174.28;1411282;92;21467;-90
2022/06/26 03:56:08;;;;;;;8.53;2.70;;;;;;;17.89;68.25;100171.27;1382491;93;21607;-90
2022/06/26 03:58:34;;;;;;;11.23;3.03;;;;;;;17.92;67.61;100180.23;1411115;92;21652;-90
2022/06/26 04:01:01;;;;;;;5.37;3.07;;;;;;;17.92;67.06;100180.23;1414431;92;21385;-90
2022/06/26 04:03:27;;;;;;;7.67;3.30;;;;;;;17.95;66.80;100197.27;1414856;92;21347;-91
2022/06/26 04:05:53;;;;;;;6.63;3.20;;;;;;;17.99;67.02;100196.34;1415192;92;21525;-90
2022/06/26 04:08:20;;;;;;;7.77;3.60;;;;;;;18.01;67.35;100201.81;1411204;92;21482;-90
2022/06/26 04:10:46;;;;;;;6.47;3.20;;;;;;;18.07;67.44;100199.33;1393639;92;21546;-90
2022/06/26 04:13:14;;;;;;;7.93;3.27;;;;;;;18.15;67.27;100205.84;1379868;92;21386;-90
2022/06/26 04:15:41;;;;;;;6.00;3.20;;;;;;;18.24;67.22;100212.66;1416270;92;21527;-90
2022/06/26 04:18:09;;;;;;;9.50;4.20;;;;;;;18.30;66.99;100211.88;1414105;92;21474;-90
2022/06/26 04:20:35;;;;;;;7.03;4.00;;;;;;;18.36;66.39;100207.55;1408540;92;21548;-90
2022/06/26 04:23:09;;;;;;;13.80;4.70;;;;;;;18.41;66.38;100214.44;1417298;92;21355;-91
2022/06/26 04:25:38;;;;;;;9.60;3.77;;;;;;;18.44;66.11;100218.91;1415751;92;21518;-90
2022/06/26 04:28:06;;;;;;;11.57;3.90;;;;;;;18.45;66.48;100227.24;1406778;92;21480;-90
2022/06/26 04:30:33;;;;;;;9.20;3.53;;;;;;;18.46;66.20;100230.22;1414908;92;21607;-91
2022/06/26 04:32:59;;;;;;;15.83;4.20;;;;;;;18.51;66.30;100223.44;1419075;92;21371;-91
2022/06/26 04:35:25;;;;;;;14.47;3.40;;;;;;;18.56;66.22;100226.31;1406098;92;22405;-90
2022/06/26 04:37:52;;;;;;;10.57;3.40;;;;;;;18.62;66.38;100231.70;1412604;92;21585;-91
2022/06/26 04:40:18;;;;;;;13.03;3.53;;;;;;;18.67;66.63;100236.42;1418342;92;21415;-91
2022/06/26 04:42:45;;;;;;;10.77;3.80;;;;;;;18.78;66.81;100237.70;1411077;92;22800;-91
2022/06/26 04:45:12;;;;;;;14.93;4.17;;;;;;;18.87;66.61;100233.78;1408422;92;21465;-91
2022/06/26 04:47:39;;;;;;;15.50;3.50;;;;;;;18.97;66.44;100236.89;1417288;92;21452;-90
2022/06/26 04:50:08;;;;;;;9.83;3.30;;;;;;;19.07;66.10;100237.80;1400837;92;21378;-90
2022/06/26 04:52:34;;;;;;;12.37;3.67;;;;;;;19.13;65.56;100243.18;1412376;92;21363;-90
2022/06/26 04:55:01;;;;;;;9.70;3.43;;;;;;;19.22;65.35;100241.10;1418545;92;21355;-91
2022/06/26 04:57:27;;;;;;;9.73;4.10;;;;;;;19.29;64.99;100235.72;1413455;92;21429;-90
2022/06/26 04:59:54;;;;;;;12.87;3.37;;;;;;;19.38;64.91;100239.30;1415666;92;21489;-91
2022/06/26 05:02:20;;;;;;;8.63;3.40;;;;;;;19.48;64.63;100246.08;1416405;92;21400;-92
2022/06/26 05:04:46;;;;;;;13.90;3.90;;;;;;;19.57;64.03;100247.53;1394819;92;22419;-90
2022/06/26 05:07:14;;;;;;;6.37;4.50;;;;;;;19.63;63.65;100246.68;1408117;92;21459;-91
2022/06/26 05:09:40;;;;;;;7.73;3.50;;;;;;;19.73;63.40;100246.25;1419693;92;21481;-90
2022/06/26 05:12:07;;;;;;;7.37;3.90;;;;;;;19.81;63.18;100241.47;1396582;92;21348;-90
2022/06/26 05:14:33;;;;;;;12.90;4.33;;;;;;;19.93;62.91;100251.55;1398057;92;21431;-90
2022/06/26 05:16:59;;;;;;;9.20;3.57;;;;;;;20.02;62.61;100244.89;1408797;92;21504;-91
2022/06/26 05:19:26;;;;;;;6.58;3.30;;;;;;;20.12;62.43;100249.30;1410626;92;22272;-90
2022/06/26 05:21:53;;;;;;;8.65;4.28;;;;;;;20.25;62.21;100250.59;1416016;92;21495;-91
2022/06/26 05:24:19;;;;;;;11.38;3.92;;;;;;;20.37;61.82;100262.81;1384355;92;21540;-91
2022/06/26 05:26:45;;;;;;;6.60;3.45;;;;;;;20.45;61.53;100249.09;1414048;92;21296;-91
2022/06/26 05:29:11;;;;;;;10.72;3.50;;;;;;;20.53;61.17;100253.42;1419495;92;21422;-91
2022/06/26 05:31:37;;;;;;;8.33;3.27;;;;;;;20.64;61.01;100253.26;1414302;92;21326;-91
2022/06/26 05:34:04;;;;;;;7.05;3.80;;;;;;;20.70;60.32;100257.76;1410469;92;21444;-91
2022/06/26 05:36:30;;;;;;;10.58;3.90;;;;;;;20.66;60.32;100257.37;1413321;92;21393;-90
2022/06/26 05:38:56;;;;;;;8.78;3.80;;;;;;;20.62;60.32;100254.80;1413546;92;22340;-90
2022/06/26 05:41:22;;;;;;;10.78;3.92;;;;;;;20.56;60.46;100255.67;1393637;92;21488;-89
2022/06/26 05:43:48;;;;;;;10.95;4.00;;;;;;;20.54;60.42;100265.00;1381154;92;21378;-90
2022/06/26 05:46:15;;;;;;;8.35;3.67;;;;;;;20.52;60.60;100253.10;1416007;92;23107;-91
2022/06/26 05:48:41;;;;;;;11.40;4.08;;;;;;;20.53;60.61;100253.95;1410892;92;21592;-90
2022/06/26 05:51:07;;;;;;;6.87;3.72;;;;;;;20.57;60.81;100256.00;1410180;92;21431;-91
2022/06/26 05:53:33;;;;;;;7.87;3.52;;;;;;;20.75;60.73;100257.94;1416471;92;21385;-91
2022/06/26 05:55:59;;;;;;;14.50;4.60;;;;;;;20.98;60.50;100265.94;1393644;92;21451;-90
2022/06/26 05:58:26;;;;;;;6.28;3.45;;;;;;;21.18;60.17;100267.92;1415352;92;21445;-91
2022/06/26 06:00:52;;;;;;;5.08;3.20;;;;;;;21.35;59.86;100272.22;1407020;92;21349;-91
2022/06/26 06:03:18;;;;;;;11.70;4.15;;;;;;;21.59;59.51;100283.48;1418166;92;21400;-91
2022/06/26 06:05:45;;;;;;;5.65;3.55;;;;;;;21.71;58.67;100285.44;1415450;92;21407;-91
2022/06/26 06:08:12;;;;;;;11.55;4.00;;;;;;;21.81;58.39;100287.09;1416106;92;22279;-91
2022/06/26 06:10:38;;;;;;;6.47;4.72;;;;;;;21.95;58.34;100290.43;1408863;92;21495;-91
2022/06/26 06:13:05;;;;;;;10.45;4.00;;;;;;;22.12;57.99;100298.20;1418986;92;23431;-91
2022/06/26 06:15:31;;;;;;;9.95;4.05;;;;;;;22.21;57.42;100294.70;1411194;92;21547;-92
2022/06/26 06:17:57;;;;;;;10.85;4.20;;;;;;;22.33;57.15;100299.64;1403227;91;21392;-91
2022/06/26 06:20:28;;;;;;;10.28;4.50;;;;;;;22.36;56.63;100307.80;1414416;92;21546;-91
2022/06/26 06:22:56;;;;;;;8.10;4.53;;;;;;;22.35;56.60;100302.91;1415377;92;21503;-91
2022/06/26 06:25:23;;;;;;;11.45;4.03;;;;;;;22.37;56.61;100305.39;1419906;92;21473;-92
2022/06/26 06:27:49;;;;;;;9.93;3.95;;;;;;;22.35;56.58;100305.60;1415068;92;21541;-91
2022/06/26 06:30:16;;;;;;;15.10;4.45;;;;;;;22.35;56.48;100301.56;1414054;92;22353;-91
2022/06/26 06:32:43;;;;;;;11.25;4.62;;;;;;;22.41;56.52;100303.37;1412792;92;21519;-91
2022/06/26 06:35:13;;;;;;;18.70;4.80;;;;;;;22.58;56.18;100310.27;1404990;92;21407;-90
2022/06/26 06:37:38;;;;;;;11.33;5.05;;;;;;;22.75;55.85;100311.25;1411410;92;21399;-91
2022/06/26 06:40:05;;;;;;;6.08;4.97;;;;;;;22.94;55.18;100314.71;1417493;92;21399;-91
2022/06/26 06:42:32;;;;;;;13.50;4.70;;;;;;;23.16;54.94;100319.56;1411205;92;21452;-91
2022/06/26 06:44:58;;;;;;;14.38;4.58;;;;;;;23.37;54.53;100319.02;1418567;92;21569;-90
2022/06/26 06:47:24;;;;;;;7.47;4.12;;;;;;;23.59;53.80;100313.00;1403135;92;22464;-92
2022/06/26 06:49:50;;;;;;;12.18;4.28;;;;;;;23.79;53.23;100320.23;1411952;92;21443;-91
2022/06/26 06:52:17;;;;;;;174.65;12.28;;;;;;;24.01;53.06;100315.56;1402377;92;21547;-91
2022/06/26 06:54:43;;;;;;;9.63;4.70;;;;;;;24.16;52.22;100322.63;1417929;92;21415;-90
2022/06/26 06:57:09;;;;;;;36.40;5.72;;;;;;;24.35;51.80;100325.17;1399123;92;22366;-90
2022/06/26 06:59:35;;;;;;;25.43;5.53;;;;;;;24.43;51.52;100324.28;1413109;92;21370;-90
2022/06/26 07:02:05;;;;;;;13.28;5.40;;;;;;;24.44;51.50;100327.27;1412040;92;21400;-91
2022/06/26 07:04:31;;;;;;;12.95;5.05;;;;;;;24.43;50.95;100326.17;1419500;92;21560;-90
2022/06/26 07:06:57;;;;;;;7.10;4.10;;;;;;;24.39;50.99;100326.31;1416924;92;21555;-91
2022/06/26 07:09:23;;;;;;;5.10;3.70;;;;;;;24.51;50.92;100320.35;1414533;92;21407;-90
2022/06/26 07:11:49;;;;;;;14.25;4.87;;;;;;;24.60;50.24;100326.19;1408751;92;21363;-89
2022/06/26 07:14:16;;;;;;;18.00;5.72;;;;;;;24.70;50.26;100323.68;1405802;92;21378;-90
2022/06/26 07:16:42;;;;;;;308.32;26.00;;;;;;;24.82;50.20;100329.03;1422162;92;21393;-90
2022/06/26 07:19:08;;;;;;;27.52;5.05;;;;;;;24.94;50.16;100329.77;1416911;92;21691;-90
2022/06/26 07:21:35;;;;;;;8.33;4.12;;;;;;;25.13;50.48;100331.19;1414227;92;21548;-90
2022/06/26 07:24:01;;;;;;;6.67;4.33;;;;;;;25.28;49.93;100318.44;1409234;92;21452;-90
2022/06/26 07:26:27;;;;;;;10.95;3.67;;;;;;;25.44;49.64;100328.98;1417096;92;21412;-90
2022/06/26 07:28:53;;;;;;;13.85;4.37;;;;;;;25.61;49.10;100333.84;1405171;92;22281;-90
2022/06/26 07:31:19;;;;;;;7.12;3.62;;;;;;;25.73;48.70;100337.80;1410173;92;21422;-90
2022/06/26 07:36:30;;;;;;;8.75;3.80;;;;;;;25.93;47.95;100337.83;1420296;92;22355;-91
2022/06/26 07:38:56;;;;;;;7.03;3.80;;;;;;;26.03;48.04;100337.41;1416071;92;21385;-91
2022/06/26 07:41:22;;;;;;;9.60;3.70;;;;;;;26.03;47.55;100335.23;1399006;92;21563;-91
2022/06/26 07:43:50;;;;;;;9.58;4.42;;;;;;;26.22;47.43;100345.24;1415474;92;21466;-91
2022/06/26 07:46:17;;;;;;;16.80;4.47;;;;;;;26.28;46.82;100341.51;1421001;92;22354;-90
2022/06/26 07:48:43;;;;;;;7.50;3.50;;;;;;;26.37;46.59;100338.63;1413801;92;21430;-90
2022/06/26 07:51:09;;;;;;;5.45;3.80;;;;;;;26.47;46.22;100337.39;1408760;92;22404;-91
2022/06/26 07:53:37;;;;;;;17.30;4.33;;;;;;;26.52;46.08;100333.38;1401420;92;21470;-90
2022/06/26 07:56:04;;;;;;;9.63;3.45;;;;;;;26.58;45.93;100332.09;1410712;92;21437;-90
2022/06/26 07:58:31;;;;;;;7.80;3.55;;;;;;;26.65;45.98;100335.43;1417325;92;22228;-91
2022/06/26 08:00:57;;;;;;;7.37;3.45;;;;;;;26.72;46.28;100327.34;1412511;92;21511;-89
2022/06/26 08:03:24;;;;;;;8.08;3.67;;;;;;;26.87;46.05;100332.09;1411257;92;22420;-89
2022/06/26 08:05:50;;;;;;;16.02;3.17;;;;;;;26.88;45.32;100334.29;1410576;92;21393;-90
2022/06/26 08:08:17;;;;;;;14.90;3.77;;;;;;;26.94;45.02;100335.42;1414562;92;21407;-91
2022/06/26 08:10:43;;;;;;;17.40;3.92;;;;;;;26.99;44.53;100330.05;1410022;92;21341;-90
2022/06/26 08:13:09;;;;;;;8.78;2.87;;;;;;;27.13;44.11;100333.66;1409909;92;21385;-91
2022/06/26 08:15:36;;;;;;;4.37;3.33;;;;;;;27.15;43.92;100332.36;1415536;92;21453;-90
2022/06/26 08:18:03;;;;;;;4.55;2.87;;;;;;;27.31;43.96;100339.29;1414659;92;21942;-91
2022/06/26 08:20:30;;;;;;;11.33;3.87;;;;;;;27.48;43.81;100339.11;1416537;92;23362;-91
2022/06/26 08:22:56;;;;;;;9.65;2.87;;;;;;;27.57;43.61;100338.92;1412778;92;21326;-90
2022/06/26 08:25:22;;;;;;;26.23;3.95;;;;;;;27.62;42.99;100341.13;1416487;92;21438;-90
2022/06/26 08:27:48;;;;;;;4.97;3.02;;;;;;;27.71;43.22;100347.41;1407225;92;21430;-90
2022/06/26 08:30:15;;;;;;;9.88;3.90;;;;;;;27.74;42.48;100351.80;1383179;92;21504;-90
2022/06/26 08:32:42;;;;;;;3.90;3.08;;;;;;;27.86;42.86;100349.70;1414753;92;21471;-90
2022/06/26 08:35:10;;;;;;;8.13;3.10;;;;;;;27.99;42.28;100347.58;1411583;92;21414;-90
2022/06/26 08:37:40;;;;;;;7.70;3.10;;;;;;;28.06;41.53;100347.62;1411701;92;21515;-91
2022/06/26 08:40:08;;;;;;;5.28;2.98;;;;;;;28.09;41.67;100353.08;1417088;92;22036;-89
2022/06/26 08:42:39;;;;;;;6.47;2.80;;;;;;;28.18;41.50;100354.20;1414433;92;21555;-92
2022/06/26 08:45:07;;;;;;;10.03;3.15;;;;;;;28.26;41.47;100350.97;1412928;92;22443;-91
2022/06/26 08:47:39;;;;;;;8.40;2.70;;;;;;;28.07;40.69;100349.25;1415153;92;21421;-91
2022/06/26 08:50:08;;;;;;;139.85;11.78;;;;;;;28.26;41.53;100348.25;1418311;92;21340;-90
2022/06/26 08:52:35;;;;;;;13.43;3.20;;;;;;;28.38;40.73;100359.45;1414831;92;21414;-91
2022/06/26 08:55:05;;;;;;;10.08;3.30;;;;;;;28.41;40.80;100350.74;1416627;92;21496;-91
2022/06/26 08:57:33;;;;;;;4.83;2.52;;;;;;;28.44;40.43;100355.13;1394933;92;21481;-92
2022/06/26 09:00:00;;;;;;;3.77;2.22;;;;;;;28.51;40.43;100358.95;1418254;92;21370;-91
2022/06/26 09:02:27;;;;;;;5.55;2.60;;;;;;;28.54;40.50;100347.01;1413776;92;21370;-91
2022/06/26 09:04:56;;;;;;;12.37;2.08;;;;;;;28.72;40.84;100355.20;1381662;92;22316;-92
2022/06/26 09:07:23;;;;;;;8.50;2.47;;;;;;;28.85;39.80;100353.03;1422684;92;21415;-91
2022/06/26 09:09:49;;;;;;;5.33;2.30;;;;;;;28.89;39.41;100356.87;1416838;92;21371;-90
2022/06/26 09:12:15;;;;;;;10.13;2.25;;;;;;;28.99;39.11;100348.69;1411586;92;22457;-93
2022/06/26 09:14:41;;;;;;;10.28;2.25;;;;;;;29.04;39.23;100352.00;1410200;92;21562;-91
2022/06/26 09:17:07;;;;;;;4.12;2.35;;;;;;;29.02;39.49;100349.50;1407542;92;21311;-91
2022/06/26 09:19:36;;;;;;;5.75;2.35;;;;;;;28.93;39.01;100354.67;1384861;92;21489;-91
2022/06/26 09:22:16;;;;;;;8.98;2.10;;;;;;;29.15;39.19;100343.55;1403040;92;21635;-91
2022/06/26 09:24:57;;;;;;;9.15;2.60;;;;;;;29.15;38.50;100347.64;1419667;92;21467;-91
2022/06/26 09:27:23;;;;;;;6.58;2.25;;;;;;;29.19;38.91;100344.63;1411125;92;21570;-91
2022/06/26 09:29:54;;;;;;;8.55;3.30;;;;;;;29.28;38.88;100346.80;1412290;92;21466;-92
2022/06/26 09:32:22;;;;;;;12.98;3.27;;;;;;;29.34;38.71;100347.06;1416079;92;21584;-91
2022/06/26 09:34:53;;;;;;;17.82;2.22;;;;;;;29.54;38.56;100347.03;1410630;92;21378;-91
2022/06/26 09:37:21;;;;;;;5.65;2.42;;;;;;;29.59;38.80;100344.30;1410855;92;21370;-92
2022/06/26 09:39:48;;;;;;;7.90;2.87;;;;;;;29.70;37.80;100340.23;1405141;92;21498;-92
2022/06/26 09:42:21;;;;;;;9.60;2.45;;;;;;;29.90;38.10;100337.44;1408961;92;21400;-91
2022/06/26 09:44:51;;;;;;;9.23;2.20;;;;;;;30.04;37.77;100335.74;1406169;92;21468;-91
2022/06/26 09:47:31;;;;;;;7.53;2.27;;;;;;;30.15;37.36;100333.76;1402122;93;21526;-93
2022/06/26 09:50:00;;;;;;;5.10;2.30;;;;;;;30.34;36.90;100331.25;1410919;92;21681;-92
2022/06/26 09:52:30;;;;;;;12.03;3.27;;;;;;;30.42;36.53;100326.56;1415132;92;21429;-92
2022/06/26 09:54:59;;;;;;;5.53;2.20;;;;;;;30.54;36.54;100327.03;1417147;92;21378;-92
2022/06/26 09:57:27;;;;;;;6.33;2.08;;;;;;;30.65;36.91;100326.97;1407192;92;21488;-93
2022/06/26 09:59:55;;;;;;;7.10;2.35;;;;;;;30.80;36.73;100324.96;1420364;92;21525;-92
2022/06/26 10:08:03;;;;;;;8.58;2.70;;;;;;;31.02;35.87;100329.98;1411756;92;21422;-92
2022/06/26 10:10:33;;;;;;;8.05;2.37;;;;;;;31.10;35.55;100321.70;1416775;92;21364;-93
2022/06/26 10:13:04;;;;;;;3.80;2.40;;;;;;;31.10;35.43;100318.16;1390969;92;21431;-92
2022/06/26 10:15:48;;;;;;;18.60;2.95;;;;;;;31.12;35.24;100326.34;1413041;92;21451;-92
2022/06/26 10:18:43;;;;;;;5.37;2.30;;;;;;;31.14;35.15;100316.50;1411786;92;21490;-93
2022/06/26 10:21:13;;;;;;;6.17;2.92;;;;;;;31.21;34.98;100316.97;1398393;92;21725;-92
2022/06/26 10:23:42;;;;;;;6.92;2.95;;;;;;;31.17;34.90;100318.10;1420936;92;23433;-81
2022/06/26 10:26:20;;;;;;;7.22;2.33;;;;;;;31.24;34.92;100312.28;1408788;92;21510;-80
2022/06/26 10:29:07;;;;;;;5.20;2.75;;;;;;;31.38;34.90;100316.00;1407389;92;21327;-80
2022/06/26 10:31:48;;;;;;;7.25;2.80;;;;;;;31.30;34.65;100316.59;1409624;92;21356;-80
2022/06/26 10:34:23;;;;;;;4.10;2.50;;;;;;;31.08;34.05;100314.92;1408399;92;21422;-81
2022/06/26 10:37:17;;;;;;;4.60;2.58;;;;;;;30.83;34.26;100320.04;1416906;92;21407;-81
2022/06/26 10:39:49;;;;;;;6.60;2.55;;;;;;;30.79;34.40;100317.88;1407177;92;21429;-80
2022/06/26 10:45:23;;;;;;;4.15;2.55;;;;;;;31.24;34.90;100310.36;1414299;92;21392;-80
2022/06/26 10:47:58;;;;;;;6.25;2.70;;;;;;;31.41;34.38;100314.62;1416360;92;21437;-81
2022/06/26 10:50:41;;;;;;;6.22;2.47;;;;;;;31.44;33.63;100302.54;1397517;92;21458;-80
2022/06/26 10:53:24;;;;;;;6.92;2.25;;;;;;;31.63;34.06;100300.44;1408927;92;21363;-80
2022/06/26 10:55:58;;;;;;;4.33;2.17;;;;;;;31.67;33.08;100296.81;1419324;92;21430;-79
2022/06/26 10:58:38;;;;;;;3.70;2.42;;;;;;;31.70;33.04;100296.23;1413626;92;21606;-80
2022/06/26 11:01:07;;;;;;;;;;;;;;;31.74;32.92;100301.95;1414311;92;21584;-81
2022/06/26 11:03:34;;;;;;;6.67;2.03;;;;;;;31.79;33.14;100289.55;1411442;92;20340;-80
2022/06/26 11:06:08;;;;;;;5.25;2.25;;;;;;;31.98;33.33;100295.66;1410229;92;21706;-81
2022/06/26 11:08:46;;;;;;;6.42;2.50;;;;;;;32.08;32.83;100288.14;1417880;92;21385;-80
2022/06/26 11:11:20;;;;;;;3.90;2.40;;;;;;;32.21;32.06;100288.52;1409828;92;21563;-80
2022/06/26 11:14:02;;;;;;;10.08;3.08;;;;;;;32.21;32.06;100288.52;1407327;92;21926;-81
2022/06/26 11:16:44;;;;;;;6.45;2.75;;;;;;;32.30;32.01;100294.39;1421023;92;23304;-81
2022/06/26 11:19:27;;;;;;;9.15;3.05;;;;;;;32.42;31.77;100289.83;1413224;92;21948;-80
2022/06/26 11:22:08;;;;;;;80.70;6.03;;;;;;;32.46;31.54;100292.28;1417713;91;21451;-80
2022/06/26 11:24:36;;;;;;;3.87;2.17;;;;;;;32.36;31.49;100284.98;1420870;92;21865;-80
2022/06/26 11:27:03;;;;;;;4.62;2.85;;;;;;;32.58;31.78;100282.23;1419454;92;22598;-80
2022/06/26 11:29:29;;;;;;;8.25;2.62;;;;;;;32.69;31.47;100281.53;1425045;92;21385;-80
2022/06/26 11:31:56;;;;;;;6.97;2.80;;;;;;;32.83;31.18;100284.29;1409348;92;22385;-79
2022/06/26 11:34:22;;;;;;;8.33;2.77;;;;;;;32.83;31.10;100277.44;1412466;92;21399;-79
2022/06/26 11:36:56;;;;;;;5.72;2.37;;;;;;;32.83;30.95;100277.44;1413698;92;21385;-80
2022/06/26 11:39:24;;;;;;;4.33;2.70;;;;;;;32.68;30.66;100280.69;1406080;92;22229;-80
2022/06/26 11:41:51;;;;;;;12.45;2.62;;;;;;;32.71;31.14;100275.98;1415212;92;21488;-80
2022/06/26 11:44:17;;;;;;;14.58;3.02;;;;;;;32.89;31.43;100270.78;1407955;92;21356;-81